sensor_id;sensor_type;location;lat;lon;timestamp;P1;durP1;ratioP1;P2;durP2;ratioP2
60831;SDS011;46665;51.558;-0.448;2022-09-09T00:02:27;4.53;;;0.55;;
60831;SDS011;46665;51.558;-0.448;2022-09-09T00:05:14;2.78;;;0.50;;
60831;SDS011;46665;51.558;-0.448;2022-09-09T00:08:03;1.48;;;0.50;;
60831;SDS011;46665;51.558;-0.448;2022-09-09T00:10:49;3.03;;;0.63;;
60831;SDS011;46665;51.558;-0.448;2022-09-09T00:13:46;8.32;;;0.73;;
60831;SDS011;46665;51.558;-0.448;2022-09-09T00:16:35;2.50;;;0.50;;
60831;SDS011;46665;51.558;-0.448;2022-09-09T00:19:27;3.13;;;0.40;;
60831;SDS011;46665;51.558;-0.448;2022-09-09T00:22:20;1.95;;;0.38;;
60831;SDS011;46665;51.558;-0.448;2022-09-09T00:25:42;2.17;;;0.88;;
60831;SDS011;46665;51.558;-0.448;2022-09-09T00:28:24;2.15;;;0.77;;
60831;SDS011;46665;51.558;-0.448;2022-09-09T00:31:12;2.95;;;0.80;;
60831;SDS011;46665;51.558;-0.448;2022-09-09T00:34:00;5.65;;;0.93;;
60831;SDS011;46665;51.558;-0.448;2022-09-09T00:36:53;0.68;;;0.60;;
60831;SDS011;46665;51.558;-0.448;2022-09-09T00:39:45;0.35;;;0.28;;
60831;SDS011;46665;51.558;-0.448;2022-09-09T00:42:41;1.15;;;0.70;;
60831;SDS011;46665;51.558;-0.448;2022-09-09T00:48:20;0.45;;;0.35;;
60831;SDS011;46665;51.558;-0.448;2022-09-09T00:51:14;6.30;;;0.70;;
60831;SDS011;46665;51.558;-0.448;2022-09-09T01:00:16;4.60;;;0.40;;
60831;SDS011;46665;51.558;-0.448;2022-09-09T01:06:22;1.73;;;0.85;;
60831;SDS011;46665;51.558;-0.448;2022-09-09T01:09:24;0.50;;;0.40;;
60831;SDS011;46665;51.558;-0.448;2022-09-09T01:15:28;0.40;;;0.40;;
60831;SDS011;46665;51.558;-0.448;2022-09-09T01:18:15;1.30;;;1.20;;
60831;SDS011;46665;51.558;-0.448;2022-09-09T01:27:05;2.97;;;0.95;;
60831;SDS011;46665;51.558;-0.448;2022-09-09T01:29:51;2.58;;;0.40;;
60831;SDS011;46665;51.558;-0.448;2022-09-09T01:32:46;3.42;;;0.80;;
60831;SDS011;46665;51.558;-0.448;2022-09-09T01:35:35;3.67;;;0.53;;
60831;SDS011;46665;51.558;-0.448;2022-09-09T01:38:27;6.43;;;0.63;;
60831;SDS011;46665;51.558;-0.448;2022-09-09T01:41:13;10.65;;;1.38;;
60831;SDS011;46665;51.558;-0.448;2022-09-09T01:43:57;0.95;;;0.60;;
60831;SDS011;46665;51.558;-0.448;2022-09-09T01:46:41;1.25;;;0.40;;
60831;SDS011;46665;51.558;-0.448;2022-09-09T01:49:25;2.92;;;0.65;;
60831;SDS011;46665;51.558;-0.448;2022-09-09T01:52:09;1.30;;;0.52;;
60831;SDS011;46665;51.558;-0.448;2022-09-09T01:54:53;6.35;;;1.35;;
60831;SDS011;46665;51.558;-0.448;2022-09-09T01:57:52;8.15;;;0.40;;
60831;SDS011;46665;51.558;-0.448;2022-09-09T02:01:06;4.57;;;0.80;;
60831;SDS011;46665;51.558;-0.448;2022-09-09T02:03:59;2.28;;;0.50;;
60831;SDS011;46665;51.558;-0.448;2022-09-09T02:06:52;2.17;;;0.80;;
60831;SDS011;46665;51.558;-0.448;2022-09-09T02:09:39;0.50;;;0.50;;
60831;SDS011;46665;51.558;-0.448;2022-09-09T02:12:26;3.47;;;0.55;;
60831;SDS011;46665;51.558;-0.448;2022-09-09T02:15:33;1.10;;;0.50;;
60831;SDS011;46665;51.558;-0.448;2022-09-09T02:18:35;3.53;;;1.30;;
60831;SDS011;46665;51.558;-0.448;2022-09-09T02:21:27;5.25;;;0.93;;
60831;SDS011;46665;51.558;-0.448;2022-09-09T02:24:14;4.25;;;0.60;;
60831;SDS011;46665;51.558;-0.448;2022-09-09T02:26:59;2.33;;;0.70;;
60831;SDS011;46665;51.558;-0.448;2022-09-09T02:29:49;0.65;;;0.30;;
60831;SDS011;46665;51.558;-0.448;2022-09-09T02:32:36;1.30;;;0.52;;
60831;SDS011;46665;51.558;-0.448;2022-09-09T02:35:23;1.60;;;0.80;;
60831;SDS011;46665;51.558;-0.448;2022-09-09T02:38:10;0.55;;;0.55;;
60831;SDS011;46665;51.558;-0.448;2022-09-09T02:40:57;1.48;;;0.60;;
60831;SDS011;46665;51.558;-0.448;2022-09-09T02:43:42;6.65;;;0.77;;
60831;SDS011;46665;51.558;-0.448;2022-09-09T02:49:54;2.28;;;0.75;;
60831;SDS011;46665;51.558;-0.448;2022-09-09T02:58:27;0.82;;;0.30;;
60831;SDS011;46665;51.558;-0.448;2022-09-09T03:01:12;0.50;;;0.43;;
60831;SDS011;46665;51.558;-0.448;2022-09-09T03:03:56;5.88;;;0.70;;
60831;SDS011;46665;51.558;-0.448;2022-09-09T03:06:41;1.58;;;0.45;;
60831;SDS011;46665;51.558;-0.448;2022-09-09T03:09:24;0.35;;;0.35;;
60831;SDS011;46665;51.558;-0.448;2022-09-09T03:12:10;2.95;;;0.85;;
60831;SDS011;46665;51.558;-0.448;2022-09-09T03:14:57;0.40;;;0.40;;
60831;SDS011;46665;51.558;-0.448;2022-09-09T03:17:41;0.35;;;0.35;;
60831;SDS011;46665;51.558;-0.448;2022-09-09T03:20:27;0.30;;;0.30;;
60831;SDS011;46665;51.558;-0.448;2022-09-09T03:23:12;0.30;;;0.30;;
60831;SDS011;46665;51.558;-0.448;2022-09-09T03:25:57;0.52;;;0.52;;
60831;SDS011;46665;51.558;-0.448;2022-09-09T03:28:42;1.17;;;0.25;;
60831;SDS011;46665;51.558;-0.448;2022-09-09T03:31:28;0.82;;;0.30;;
60831;SDS011;46665;51.558;-0.448;2022-09-09T03:34:13;2.92;;;0.68;;
60831;SDS011;46665;51.558;-0.448;2022-09-09T03:36:57;0.57;;;0.40;;
60831;SDS011;46665;51.558;-0.448;2022-09-09T03:39:41;1.65;;;1.15;;
60831;SDS011;46665;51.558;-0.448;2022-09-09T03:42:25;1.45;;;0.50;;
60831;SDS011;46665;51.558;-0.448;2022-09-09T03:45:10;1.58;;;0.30;;
60831;SDS011;46665;51.558;-0.448;2022-09-09T03:47:54;0.63;;;0.30;;
60831;SDS011;46665;51.558;-0.448;2022-09-09T03:50:44;0.20;;;0.20;;
60831;SDS011;46665;51.558;-0.448;2022-09-09T03:53:32;0.32;;;0.20;;
60831;SDS011;46665;51.558;-0.448;2022-09-09T03:56:17;1.20;;;0.40;;
60831;SDS011;46665;51.558;-0.448;2022-09-09T03:59:01;1.75;;;0.50;;
60831;SDS011;46665;51.558;-0.448;2022-09-09T04:01:45;0.85;;;0.82;;
60831;SDS011;46665;51.558;-0.448;2022-09-09T04:04:30;0.30;;;0.30;;
60831;SDS011;46665;51.558;-0.448;2022-09-09T04:07:14;0.95;;;0.40;;
60831;SDS011;46665;51.558;-0.448;2022-09-09T04:09:59;1.70;;;0.63;;
60831;SDS011;46665;51.558;-0.448;2022-09-09T04:12:43;1.20;;;0.40;;
60831;SDS011;46665;51.558;-0.448;2022-09-09T04:15:27;0.85;;;0.50;;
60831;SDS011;46665;51.558;-0.448;2022-09-09T04:18:12;0.50;;;0.43;;
60831;SDS011;46665;51.558;-0.448;2022-09-09T04:20:57;2.28;;;0.90;;
60831;SDS011;46665;51.558;-0.448;2022-09-09T04:23:41;3.42;;;1.00;;
60831;SDS011;46665;51.558;-0.448;2022-09-09T04:26:25;1.17;;;0.70;;
60831;SDS011;46665;51.558;-0.448;2022-09-09T04:29:09;1.35;;;0.95;;
60831;SDS011;46665;51.558;-0.448;2022-09-09T04:31:53;2.53;;;0.85;;
60831;SDS011;46665;51.558;-0.448;2022-09-09T04:34:37;0.70;;;0.55;;
60831;SDS011;46665;51.558;-0.448;2022-09-09T04:37:21;1.02;;;0.80;;
60831;SDS011;46665;51.558;-0.448;2022-09-09T04:40:05;0.52;;;0.52;;
60831;SDS011;46665;51.558;-0.448;2022-09-09T04:42:49;10.60;;;1.15;;
60831;SDS011;46665;51.558;-0.448;2022-09-09T04:45:33;9.73;;;0.73;;
60831;SDS011;46665;51.558;-0.448;2022-09-09T04:48:18;0.60;;;0.40;;
60831;SDS011;46665;51.558;-0.448;2022-09-09T04:51:04;2.30;;;0.82;;
60831;SDS011;46665;51.558;-0.448;2022-09-09T04:53:50;5.32;;;0.68;;
60831;SDS011;46665;51.558;-0.448;2022-09-09T04:56:34;3.13;;;0.77;;
60831;SDS011;46665;51.558;-0.448;2022-09-09T04:59:19;1.67;;;0.88;;
60831;SDS011;46665;51.558;-0.448;2022-09-09T05:02:04;2.65;;;0.60;;
60831;SDS011;46665;51.558;-0.448;2022-09-09T05:04:48;1.17;;;1.08;;
60831;SDS011;46665;51.558;-0.448;2022-09-09T05:07:33;2.42;;;0.80;;
60831;SDS011;46665;51.558;-0.448;2022-09-09T05:10:17;3.83;;;0.90;;
60831;SDS011;46665;51.558;-0.448;2022-09-09T05:13:01;0.95;;;0.88;;
60831;SDS011;46665;51.558;-0.448;2022-09-09T05:15:51;1.05;;;0.95;;
60831;SDS011;46665;51.558;-0.448;2022-09-09T05:18:39;5.63;;;1.05;;
60831;SDS011;46665;51.558;-0.448;2022-09-09T05:21:24;2.95;;;1.17;;
60831;SDS011;46665;51.558;-0.448;2022-09-09T05:24:10;3.05;;;1.25;;
60831;SDS011;46665;51.558;-0.448;2022-09-09T05:26:54;3.28;;;1.58;;
60831;SDS011;46665;51.558;-0.448;2022-09-09T05:29:41;2.85;;;1.00;;
60831;SDS011;46665;51.558;-0.448;2022-09-09T05:32:29;2.85;;;1.25;;
60831;SDS011;46665;51.558;-0.448;2022-09-09T05:35:15;1.50;;;1.40;;
60831;SDS011;46665;51.558;-0.448;2022-09-09T05:38:01;2.60;;;1.65;;
60831;SDS011;46665;51.558;-0.448;2022-09-09T05:40:48;3.13;;;1.50;;
60831;SDS011;46665;51.558;-0.448;2022-09-09T05:43:33;7.10;;;2.20;;
60831;SDS011;46665;51.558;-0.448;2022-09-09T05:46:20;1.60;;;1.50;;
60831;SDS011;46665;51.558;-0.448;2022-09-09T05:49:06;1.83;;;1.42;;
60831;SDS011;46665;51.558;-0.448;2022-09-09T05:51:49;1.48;;;0.98;;
60831;SDS011;46665;51.558;-0.448;2022-09-09T05:54:34;2.17;;;1.88;;
60831;SDS011;46665;51.558;-0.448;2022-09-09T05:57:18;6.97;;;1.90;;
60831;SDS011;46665;51.558;-0.448;2022-09-09T06:00:03;2.10;;;1.88;;
60831;SDS011;46665;51.558;-0.448;2022-09-09T06:02:51;5.93;;;1.70;;
60831;SDS011;46665;51.558;-0.448;2022-09-09T06:05:36;2.50;;;1.40;;
60831;SDS011;46665;51.558;-0.448;2022-09-09T06:08:20;5.03;;;1.80;;
60831;SDS011;46665;51.558;-0.448;2022-09-09T06:11:11;1.70;;;1.45;;
60831;SDS011;46665;51.558;-0.448;2022-09-09T06:14:10;2.00;;;1.27;;
60831;SDS011;46665;51.558;-0.448;2022-09-09T06:16:54;1.25;;;1.02;;
60831;SDS011;46665;51.558;-0.448;2022-09-09T06:19:38;1.60;;;1.33;;
60831;SDS011;46665;51.558;-0.448;2022-09-09T06:22:22;2.67;;;1.48;;
60831;SDS011;46665;51.558;-0.448;2022-09-09T06:25:06;1.90;;;1.67;;
60831;SDS011;46665;51.558;-0.448;2022-09-09T06:27:51;2.07;;;1.97;;
60831;SDS011;46665;51.558;-0.448;2022-09-09T06:30:36;5.50;;;1.42;;
60831;SDS011;46665;51.558;-0.448;2022-09-09T06:33:20;1.80;;;1.55;;
60831;SDS011;46665;51.558;-0.448;2022-09-09T06:36:04;2.08;;;1.60;;
60831;SDS011;46665;51.558;-0.448;2022-09-09T06:38:48;6.20;;;1.90;;
60831;SDS011;46665;51.558;-0.448;2022-09-09T06:41:33;3.50;;;1.48;;
60831;SDS011;46665;51.558;-0.448;2022-09-09T06:44:17;6.97;;;1.20;;
60831;SDS011;46665;51.558;-0.448;2022-09-09T06:47:01;5.93;;;1.77;;
60831;SDS011;46665;51.558;-0.448;2022-09-09T06:49:44;5.30;;;1.50;;
60831;SDS011;46665;51.558;-0.448;2022-09-09T06:52:29;2.20;;;1.38;;
60831;SDS011;46665;51.558;-0.448;2022-09-09T06:55:12;8.10;;;1.30;;
60831;SDS011;46665;51.558;-0.448;2022-09-09T06:57:59;1.50;;;1.40;;
60831;SDS011;46665;51.558;-0.448;2022-09-09T07:00:43;1.40;;;1.30;;
60831;SDS011;46665;51.558;-0.448;2022-09-09T07:03:27;1.42;;;1.23;;
60831;SDS011;46665;51.558;-0.448;2022-09-09T07:06:15;1.83;;;1.52;;
60831;SDS011;46665;51.558;-0.448;2022-09-09T07:09:05;3.30;;;1.70;;
60831;SDS011;46665;51.558;-0.448;2022-09-09T07:11:50;3.25;;;1.42;;
60831;SDS011;46665;51.558;-0.448;2022-09-09T07:14:36;1.38;;;1.25;;
60831;SDS011;46665;51.558;-0.448;2022-09-09T07:17:21;5.30;;;1.20;;
60831;SDS011;46665;51.558;-0.448;2022-09-09T07:20:05;1.85;;;1.55;;
60831;SDS011;46665;51.558;-0.448;2022-09-09T07:22:49;1.90;;;1.70;;
60831;SDS011;46665;51.558;-0.448;2022-09-09T07:25:33;1.40;;;1.25;;
60831;SDS011;46665;51.558;-0.448;2022-09-09T07:28:17;1.48;;;1.30;;
60831;SDS011;46665;51.558;-0.448;2022-09-09T07:31:01;2.20;;;1.33;;
60831;SDS011;46665;51.558;-0.448;2022-09-09T07:33:47;1.60;;;1.40;;
60831;SDS011;46665;51.558;-0.448;2022-09-09T07:36:33;3.20;;;1.75;;
60831;SDS011;46665;51.558;-0.448;2022-09-09T07:39:19;3.80;;;1.33;;
60831;SDS011;46665;51.558;-0.448;2022-09-09T07:42:03;9.30;;;2.08;;
60831;SDS011;46665;51.558;-0.448;2022-09-09T07:44:48;6.28;;;2.17;;
60831;SDS011;46665;51.558;-0.448;2022-09-09T07:47:32;2.03;;;1.77;;
60831;SDS011;46665;51.558;-0.448;2022-09-09T07:50:17;2.85;;;2.30;;
60831;SDS011;46665;51.558;-0.448;2022-09-09T07:53:01;12.80;;;2.45;;
60831;SDS011;46665;51.558;-0.448;2022-09-09T07:55:46;3.13;;;2.65;;
60831;SDS011;46665;51.558;-0.448;2022-09-09T07:58:30;2.92;;;2.45;;
60831;SDS011;46665;51.558;-0.448;2022-09-09T08:01:16;4.65;;;2.60;;
60831;SDS011;46665;51.558;-0.448;2022-09-09T08:04:07;2.17;;;2.03;;
60831;SDS011;46665;51.558;-0.448;2022-09-09T08:06:57;4.20;;;2.00;;
60831;SDS011;46665;51.558;-0.448;2022-09-09T08:09:43;4.20;;;2.13;;
60831;SDS011;46665;51.558;-0.448;2022-09-09T08:12:27;3.97;;;2.60;;
60831;SDS011;46665;51.558;-0.448;2022-09-09T08:15:12;3.78;;;2.53;;
60831;SDS011;46665;51.558;-0.448;2022-09-09T08:17:56;8.50;;;1.92;;
60831;SDS011;46665;51.558;-0.448;2022-09-09T08:20:40;3.55;;;2.45;;
60831;SDS011;46665;51.558;-0.448;2022-09-09T08:23:24;4.32;;;2.83;;
60831;SDS011;46665;51.558;-0.448;2022-09-09T08:26:10;3.95;;;2.47;;
60831;SDS011;46665;51.558;-0.448;2022-09-09T08:29:00;7.00;;;3.92;;
60831;SDS011;46665;51.558;-0.448;2022-09-09T08:31:46;4.07;;;2.83;;
60831;SDS011;46665;51.558;-0.448;2022-09-09T08:37:15;2.78;;;2.58;;
60831;SDS011;46665;51.558;-0.448;2022-09-09T08:39:59;9.52;;;3.60;;
60831;SDS011;46665;51.558;-0.448;2022-09-09T08:42:45;5.68;;;3.03;;
60831;SDS011;46665;51.558;-0.448;2022-09-09T08:48:59;5.97;;;2.60;;
60831;SDS011;46665;51.558;-0.448;2022-09-09T08:52:13;3.08;;;1.90;;
60831;SDS011;46665;51.558;-0.448;2022-09-09T08:55:49;3.72;;;2.53;;
60831;SDS011;46665;51.558;-0.448;2022-09-09T08:58:14;3.45;;;2.45;;
60831;SDS011;46665;51.558;-0.448;2022-09-09T09:04:21;5.07;;;3.40;;
60831;SDS011;46665;51.558;-0.448;2022-09-09T09:10:34;6.07;;;3.47;;
60831;SDS011;46665;51.558;-0.448;2022-09-09T09:13:38;4.72;;;3.10;;
60831;SDS011;46665;51.558;-0.448;2022-09-09T09:16:34;5.35;;;2.65;;
60831;SDS011;46665;51.558;-0.448;2022-09-09T09:19:28;8.02;;;4.20;;
60831;SDS011;46665;51.558;-0.448;2022-09-09T09:28:07;4.05;;;3.65;;
60831;SDS011;46665;51.558;-0.448;2022-09-09T09:31:03;11.00;;;3.97;;
60831;SDS011;46665;51.558;-0.448;2022-09-09T09:33:51;7.38;;;3.78;;
60831;SDS011;46665;51.558;-0.448;2022-09-09T09:36:44;7.20;;;4.43;;
60831;SDS011;46665;51.558;-0.448;2022-09-09T09:39:31;7.13;;;3.97;;
60831;SDS011;46665;51.558;-0.448;2022-09-09T09:42:21;7.70;;;3.67;;
60831;SDS011;46665;51.558;-0.448;2022-09-09T09:48:06;9.82;;;4.47;;
60831;SDS011;46665;51.558;-0.448;2022-09-09T09:51:01;5.97;;;3.80;;
60831;SDS011;46665;51.558;-0.448;2022-09-09T09:53:51;6.78;;;3.28;;
60831;SDS011;46665;51.558;-0.448;2022-09-09T09:56:37;15.60;;;4.55;;
60831;SDS011;46665;51.558;-0.448;2022-09-09T10:05:04;8.55;;;3.33;;
60831;SDS011;46665;51.558;-0.448;2022-09-09T10:08:04;7.32;;;4.20;;
60831;SDS011;46665;51.558;-0.448;2022-09-09T10:23:41;2.70;;;2.10;;
60831;SDS011;46665;51.558;-0.448;2022-09-09T10:32:41;2.58;;;2.15;;
60831;SDS011;46665;51.558;-0.448;2022-09-09T10:39:03;3.88;;;2.05;;
60831;SDS011;46665;51.558;-0.448;2022-09-09T10:50:40;2.05;;;1.63;;
60831;SDS011;46665;51.558;-0.448;2022-09-09T10:56:58;1.95;;;1.10;;
60831;SDS011;46665;51.558;-0.448;2022-09-09T10:59:53;1.95;;;1.20;;
60831;SDS011;46665;51.558;-0.448;2022-09-09T11:02:41;2.47;;;0.82;;
60831;SDS011;46665;51.558;-0.448;2022-09-09T11:05:30;1.83;;;1.27;;
60831;SDS011;46665;51.558;-0.448;2022-09-09T11:08:25;4.30;;;1.35;;
60831;SDS011;46665;51.558;-0.448;2022-09-09T11:11:14;1.77;;;1.58;;
60831;SDS011;46665;51.558;-0.448;2022-09-09T11:14:18;2.92;;;1.48;;
60831;SDS011;46665;51.558;-0.448;2022-09-09T11:17:08;1.17;;;1.08;;
60831;SDS011;46665;51.558;-0.448;2022-09-09T11:19:57;1.52;;;1.30;;
60831;SDS011;46665;51.558;-0.448;2022-09-09T11:25:32;2.08;;;0.85;;
60831;SDS011;46665;51.558;-0.448;2022-09-09T11:37:39;1.00;;;0.80;;
60831;SDS011;46665;51.558;-0.448;2022-09-09T11:40:47;3.17;;;1.13;;
60831;SDS011;46665;51.558;-0.448;2022-09-09T11:43:40;0.63;;;0.63;;
60831;SDS011;46665;51.558;-0.448;2022-09-09T11:46:34;0.50;;;0.50;;
60831;SDS011;46665;51.558;-0.448;2022-09-09T11:49:26;0.70;;;0.70;;
60831;SDS011;46665;51.558;-0.448;2022-09-09T11:55:27;4.68;;;2.25;;
60831;SDS011;46665;51.558;-0.448;2022-09-09T11:58:15;3.40;;;0.75;;
60831;SDS011;46665;51.558;-0.448;2022-09-09T12:01:01;1.10;;;0.63;;
60831;SDS011;46665;51.558;-0.448;2022-09-09T12:04:04;1.38;;;0.82;;
60831;SDS011;46665;51.558;-0.448;2022-09-09T12:12:36;8.27;;;0.90;;
60831;SDS011;46665;51.558;-0.448;2022-09-09T12:18:14;1.05;;;0.93;;
60831;SDS011;46665;51.558;-0.448;2022-09-09T12:21:07;0.80;;;0.80;;
60831;SDS011;46665;51.558;-0.448;2022-09-09T12:24:08;3.08;;;0.77;;
60831;SDS011;46665;51.558;-0.448;2022-09-09T12:27:07;0.65;;;0.43;;
60831;SDS011;46665;51.558;-0.448;2022-09-09T12:30:04;0.75;;;0.65;;
60831;SDS011;46665;51.558;-0.448;2022-09-09T12:33:02;1.90;;;0.65;;
60831;SDS011;46665;51.558;-0.448;2022-09-09T12:35:54;0.40;;;0.40;;
60831;SDS011;46665;51.558;-0.448;2022-09-09T12:38:40;1.25;;;0.70;;
60831;SDS011;46665;51.558;-0.448;2022-09-09T12:41:26;0.30;;;0.30;;
60831;SDS011;46665;51.558;-0.448;2022-09-09T12:44:12;2.50;;;0.63;;
60831;SDS011;46665;51.558;-0.448;2022-09-09T12:46:57;0.30;;;0.30;;
60831;SDS011;46665;51.558;-0.448;2022-09-09T12:49:44;0.80;;;0.30;;
60831;SDS011;46665;51.558;-0.448;2022-09-09T12:52:32;0.30;;;0.30;;
60831;SDS011;46665;51.558;-0.448;2022-09-09T12:55:20;1.13;;;0.60;;
60831;SDS011;46665;51.558;-0.448;2022-09-09T12:58:11;0.65;;;0.40;;
60831;SDS011;46665;51.558;-0.448;2022-09-09T13:01:00;4.25;;;0.70;;
60831;SDS011;46665;51.558;-0.448;2022-09-09T13:03:48;0.30;;;0.30;;
60831;SDS011;46665;51.558;-0.448;2022-09-09T13:06:32;0.30;;;0.30;;
60831;SDS011;46665;51.558;-0.448;2022-09-09T13:09:16;1.33;;;0.60;;
60831;SDS011;46665;51.558;-0.448;2022-09-09T13:12:00;2.67;;;0.70;;
60831;SDS011;46665;51.558;-0.448;2022-09-09T13:14:52;0.40;;;0.40;;
60831;SDS011;46665;51.558;-0.448;2022-09-09T13:17:39;3.85;;;0.50;;
60831;SDS011;46665;51.558;-0.448;2022-09-09T13:20:24;0.40;;;0.40;;
60831;SDS011;46665;51.558;-0.448;2022-09-09T13:23:09;0.35;;;0.35;;
60831;SDS011;46665;51.558;-0.448;2022-09-09T13:25:57;0.85;;;0.40;;
60831;SDS011;46665;51.558;-0.448;2022-09-09T13:28:44;0.80;;;0.22;;
60831;SDS011;46665;51.558;-0.448;2022-09-09T13:31:30;2.05;;;0.45;;
60831;SDS011;46665;51.558;-0.448;2022-09-09T13:34:37;1.55;;;0.22;;
60831;SDS011;46665;51.558;-0.448;2022-09-09T13:40:18;0.63;;;0.30;;
60831;SDS011;46665;51.558;-0.448;2022-09-09T13:43:12;3.63;;;0.93;;
60831;SDS011;46665;51.558;-0.448;2022-09-09T13:46:03;0.57;;;0.30;;
60831;SDS011;46665;51.558;-0.448;2022-09-09T13:48:56;2.35;;;0.95;;
60831;SDS011;46665;51.558;-0.448;2022-09-09T13:51:43;0.43;;;0.38;;
60831;SDS011;46665;51.558;-0.448;2022-09-09T13:54:30;0.20;;;0.17;;
60831;SDS011;46665;51.558;-0.448;2022-09-09T13:57:18;0.50;;;0.40;;
60831;SDS011;46665;51.558;-0.448;2022-09-09T14:00:05;0.70;;;0.43;;
60831;SDS011;46665;51.558;-0.448;2022-09-09T14:02:52;0.50;;;0.50;;
60831;SDS011;46665;51.558;-0.448;2022-09-09T14:05:38;0.77;;;0.60;;
60831;SDS011;46665;51.558;-0.448;2022-09-09T14:08:24;0.60;;;0.57;;
60831;SDS011;46665;51.558;-0.448;2022-09-09T14:11:11;0.63;;;0.63;;
60831;SDS011;46665;51.558;-0.448;2022-09-09T14:13:56;1.65;;;0.60;;
60831;SDS011;46665;51.558;-0.448;2022-09-09T14:16:40;0.45;;;0.45;;
60831;SDS011;46665;51.558;-0.448;2022-09-09T14:19:24;0.70;;;0.57;;
60831;SDS011;46665;51.558;-0.448;2022-09-09T14:22:08;0.80;;;0.70;;
60831;SDS011;46665;51.558;-0.448;2022-09-09T14:24:52;2.78;;;0.93;;
60831;SDS011;46665;51.558;-0.448;2022-09-09T14:27:36;0.45;;;0.45;;
60831;SDS011;46665;51.558;-0.448;2022-09-09T14:30:20;0.30;;;0.30;;
60831;SDS011;46665;51.558;-0.448;2022-09-09T14:33:04;0.30;;;0.30;;
60831;SDS011;46665;51.558;-0.448;2022-09-09T14:35:48;0.55;;;0.50;;
60831;SDS011;46665;51.558;-0.448;2022-09-09T14:38:39;0.63;;;0.50;;
60831;SDS011;46665;51.558;-0.448;2022-09-09T14:41:23;3.92;;;0.40;;
60831;SDS011;46665;51.558;-0.448;2022-09-09T14:44:08;0.40;;;0.40;;
60831;SDS011;46665;51.558;-0.448;2022-09-09T14:46:52;0.70;;;0.52;;
60831;SDS011;46665;51.558;-0.448;2022-09-09T14:49:37;0.90;;;0.28;;
60831;SDS011;46665;51.558;-0.448;2022-09-09T14:52:21;0.60;;;0.60;;
60831;SDS011;46665;51.558;-0.448;2022-09-09T14:55:05;1.45;;;0.50;;
60831;SDS011;46665;51.558;-0.448;2022-09-09T14:57:50;1.23;;;0.60;;
60831;SDS011;46665;51.558;-0.448;2022-09-09T15:00:34;2.10;;;0.70;;
60831;SDS011;46665;51.558;-0.448;2022-09-09T15:03:19;1.15;;;0.60;;
60831;SDS011;46665;51.558;-0.448;2022-09-09T15:06:07;4.28;;;1.02;;
60831;SDS011;46665;51.558;-0.448;2022-09-09T15:08:53;4.63;;;1.30;;
60831;SDS011;46665;51.558;-0.448;2022-09-09T15:11:37;1.23;;;1.13;;
60831;SDS011;46665;51.558;-0.448;2022-09-09T15:14:22;0.65;;;0.63;;
60831;SDS011;46665;51.558;-0.448;2022-09-09T15:17:05;1.02;;;0.63;;
60831;SDS011;46665;51.558;-0.448;2022-09-09T15:19:49;1.70;;;1.10;;
60831;SDS011;46665;51.558;-0.448;2022-09-09T15:22:33;4.70;;;1.25;;
60831;SDS011;46665;51.558;-0.448;2022-09-09T15:25:19;1.67;;;1.58;;
60831;SDS011;46665;51.558;-0.448;2022-09-09T15:28:05;2.45;;;1.20;;
60831;SDS011;46665;51.558;-0.448;2022-09-09T15:30:49;2.40;;;1.15;;
60831;SDS011;46665;51.558;-0.448;2022-09-09T15:33:35;1.70;;;1.10;;
60831;SDS011;46665;51.558;-0.448;2022-09-09T15:36:21;3.63;;;1.92;;
60831;SDS011;46665;51.558;-0.448;2022-09-09T15:39:08;2.70;;;1.85;;
60831;SDS011;46665;51.558;-0.448;2022-09-09T15:41:56;6.40;;;1.23;;
60831;SDS011;46665;51.558;-0.448;2022-09-09T15:44:41;2.53;;;1.23;;
60831;SDS011;46665;51.558;-0.448;2022-09-09T15:47:27;1.92;;;1.17;;
60831;SDS011;46665;51.558;-0.448;2022-09-09T15:50:11;2.80;;;1.23;;
60831;SDS011;46665;51.558;-0.448;2022-09-09T15:52:55;2.47;;;1.65;;
60831;SDS011;46665;51.558;-0.448;2022-09-09T15:55:40;4.90;;;1.58;;
60831;SDS011;46665;51.558;-0.448;2022-09-09T15:58:24;0.80;;;0.80;;
60831;SDS011;46665;51.558;-0.448;2022-09-09T16:01:09;8.95;;;0.70;;
60831;SDS011;46665;51.558;-0.448;2022-09-09T16:03:54;1.17;;;0.98;;
60831;SDS011;46665;51.558;-0.448;2022-09-09T16:06:38;1.50;;;1.05;;
60831;SDS011;46665;51.558;-0.448;2022-09-09T16:09:23;1.00;;;0.75;;
60831;SDS011;46665;51.558;-0.448;2022-09-09T16:12:07;0.63;;;0.63;;
60831;SDS011;46665;51.558;-0.448;2022-09-09T16:14:53;0.95;;;0.85;;
60831;SDS011;46665;51.558;-0.448;2022-09-09T16:17:37;1.15;;;0.95;;
60831;SDS011;46665;51.558;-0.448;2022-09-09T16:20:21;1.15;;;1.08;;
60831;SDS011;46665;51.558;-0.448;2022-09-09T16:23:05;0.98;;;0.98;;
60831;SDS011;46665;51.558;-0.448;2022-09-09T16:25:55;2.38;;;0.90;;
60831;SDS011;46665;51.558;-0.448;2022-09-09T16:28:40;0.98;;;0.73;;
60831;SDS011;46665;51.558;-0.448;2022-09-09T16:31:25;2.35;;;1.45;;
60831;SDS011;46665;51.558;-0.448;2022-09-09T16:34:11;5.88;;;1.27;;
60831;SDS011;46665;51.558;-0.448;2022-09-09T16:36:55;1.40;;;1.00;;
60831;SDS011;46665;51.558;-0.448;2022-09-09T16:39:39;6.05;;;1.25;;
60831;SDS011;46665;51.558;-0.448;2022-09-09T16:42:23;2.67;;;1.30;;
60831;SDS011;46665;51.558;-0.448;2022-09-09T16:45:07;1.17;;;1.00;;
60831;SDS011;46665;51.558;-0.448;2022-09-09T16:47:52;5.78;;;1.10;;
60831;SDS011;46665;51.558;-0.448;2022-09-09T16:50:36;1.27;;;1.10;;
60831;SDS011;46665;51.558;-0.448;2022-09-09T16:53:21;1.27;;;0.98;;
60831;SDS011;46665;51.558;-0.448;2022-09-09T16:56:06;0.80;;;0.80;;
60831;SDS011;46665;51.558;-0.448;2022-09-09T16:58:51;3.05;;;1.17;;
60831;SDS011;46665;51.558;-0.448;2022-09-09T17:01:39;6.95;;;1.02;;
60831;SDS011;46665;51.558;-0.448;2022-09-09T17:04:25;0.80;;;0.80;;
60831;SDS011;46665;51.558;-0.448;2022-09-09T17:07:11;1.00;;;0.55;;
60831;SDS011;46665;51.558;-0.448;2022-09-09T17:09:55;1.05;;;0.45;;
60831;SDS011;46665;51.558;-0.448;2022-09-09T17:12:39;0.70;;;0.60;;
60831;SDS011;46665;51.558;-0.448;2022-09-09T17:15:24;0.43;;;0.40;;
60831;SDS011;46665;51.558;-0.448;2022-09-09T17:18:09;1.15;;;0.45;;
60831;SDS011;46665;51.558;-0.448;2022-09-09T17:20:54;0.52;;;0.52;;
60831;SDS011;46665;51.558;-0.448;2022-09-09T17:23:38;0.77;;;0.60;;
60831;SDS011;46665;51.558;-0.448;2022-09-09T17:26:24;1.50;;;0.40;;
60831;SDS011;46665;51.558;-0.448;2022-09-09T17:29:11;0.32;;;0.32;;
60831;SDS011;46665;51.558;-0.448;2022-09-09T17:31:55;0.93;;;0.30;;
60831;SDS011;46665;51.558;-0.448;2022-09-09T17:34:40;1.58;;;0.40;;
60831;SDS011;46665;51.558;-0.448;2022-09-09T17:37:24;0.30;;;0.30;;
60831;SDS011;46665;51.558;-0.448;2022-09-09T17:40:08;0.60;;;0.50;;
60831;SDS011;46665;51.558;-0.448;2022-09-09T17:42:52;0.43;;;0.43;;
60831;SDS011;46665;51.558;-0.448;2022-09-09T17:45:36;0.40;;;0.40;;
60831;SDS011;46665;51.558;-0.448;2022-09-09T17:48:21;0.60;;;0.35;;
60831;SDS011;46665;51.558;-0.448;2022-09-09T17:51:09;2.47;;;0.57;;
60831;SDS011;46665;51.558;-0.448;2022-09-09T17:53:57;0.45;;;0.35;;
60831;SDS011;46665;51.558;-0.448;2022-09-09T17:56:43;0.77;;;0.40;;
60831;SDS011;46665;51.558;-0.448;2022-09-09T17:59:28;0.32;;;0.32;;
60831;SDS011;46665;51.558;-0.448;2022-09-09T18:02:12;0.43;;;0.43;;
60831;SDS011;46665;51.558;-0.448;2022-09-09T18:04:56;1.05;;;0.55;;
60831;SDS011;46665;51.558;-0.448;2022-09-09T18:07:40;0.90;;;0.50;;
60831;SDS011;46665;51.558;-0.448;2022-09-09T18:10:24;0.70;;;0.60;;
60831;SDS011;46665;51.558;-0.448;2022-09-09T18:13:08;0.40;;;0.40;;
60831;SDS011;46665;51.558;-0.448;2022-09-09T18:15:52;0.88;;;0.40;;
60831;SDS011;46665;51.558;-0.448;2022-09-09T18:18:37;0.40;;;0.40;;
60831;SDS011;46665;51.558;-0.448;2022-09-09T18:21:22;0.68;;;0.43;;
60831;SDS011;46665;51.558;-0.448;2022-09-09T18:24:07;9.65;;;0.80;;
60831;SDS011;46665;51.558;-0.448;2022-09-09T18:26:53;0.70;;;0.70;;
60831;SDS011;46665;51.558;-0.448;2022-09-09T18:29:37;1.50;;;0.68;;
60831;SDS011;46665;51.558;-0.448;2022-09-09T18:32:21;2.50;;;1.02;;